sensor_id;sensor_type;location;lat;lon;timestamp;P1;durP1;ratioP1;P2;durP2;ratioP2
80926;SDS011;70385;44.538;18.532;2023-07-16T00:00:30;39.22;;;32.30;;
80926;SDS011;70385;44.538;18.532;2023-07-16T00:02:57;41.50;;;32.08;;
80926;SDS011;70385;44.538;18.532;2023-07-16T00:05:23;35.25;;;31.45;;
80926;SDS011;70385;44.538;18.532;2023-07-16T00:07:48;42.88;;;30.55;;
80926;SDS011;70385;44.538;18.532;2023-07-16T00:10:15;40.05;;;29.90;;
80926;SDS011;70385;44.538;18.532;2023-07-16T00:12:41;37.95;;;30.08;;
80926;SDS011;70385;44.538;18.532;2023-07-16T00:15:07;37.00;;;29.48;;
80926;SDS011;70385;44.538;18.532;2023-07-16T00:17:33;37.42;;;30.23;;
80926;SDS011;70385;44.538;18.532;2023-07-16T00:19:59;32.28;;;27.33;;
80926;SDS011;70385;44.538;18.532;2023-07-16T00:22:26;34.15;;;30.45;;
80926;SDS011;70385;44.538;18.532;2023-07-16T00:24:52;35.38;;;29.20;;
80926;SDS011;70385;44.538;18.532;2023-07-16T00:27:18;37.58;;;33.13;;
80926;SDS011;70385;44.538;18.532;2023-07-16T00:29:45;39.45;;;32.10;;
80926;SDS011;70385;44.538;18.532;2023-07-16T00:32:11;36.33;;;29.92;;
80926;SDS011;70385;44.538;18.532;2023-07-16T00:34:37;36.50;;;31.35;;
80926;SDS011;70385;44.538;18.532;2023-07-16T00:37:03;41.08;;;33.63;;
80926;SDS011;70385;44.538;18.532;2023-07-16T00:39:29;43.45;;;33.63;;
80926;SDS011;70385;44.538;18.532;2023-07-16T00:41:58;38.47;;;33.58;;
80926;SDS011;70385;44.538;18.532;2023-07-16T00:44:25;46.28;;;33.90;;
80926;SDS011;70385;44.538;18.532;2023-07-16T00:46:52;48.40;;;34.97;;
80926;SDS011;70385;44.538;18.532;2023-07-16T00:49:20;44.30;;;36.22;;
80926;SDS011;70385;44.538;18.532;2023-07-16T00:51:46;42.97;;;35.92;;
80926;SDS011;70385;44.538;18.532;2023-07-16T00:54:12;39.53;;;32.95;;
80926;SDS011;70385;44.538;18.532;2023-07-16T00:56:40;42.55;;;34.90;;
80926;SDS011;70385;44.538;18.532;2023-07-16T00:59:06;34.90;;;31.17;;
80926;SDS011;70385;44.538;18.532;2023-07-16T01:01:32;40.88;;;33.97;;
80926;SDS011;70385;44.538;18.532;2023-07-16T01:04:01;39.50;;;30.73;;
80926;SDS011;70385;44.538;18.532;2023-07-16T01:06:34;36.20;;;31.90;;
80926;SDS011;70385;44.538;18.532;2023-07-16T01:09:03;37.30;;;30.00;;
80926;SDS011;70385;44.538;18.532;2023-07-16T01:11:36;33.25;;;29.00;;
80926;SDS011;70385;44.538;18.532;2023-07-16T01:14:13;36.25;;;30.38;;
80926;SDS011;70385;44.538;18.532;2023-07-16T01:16:41;36.10;;;29.27;;
80926;SDS011;70385;44.538;18.532;2023-07-16T01:19:09;34.28;;;29.40;;
80926;SDS011;70385;44.538;18.532;2023-07-16T01:24:33;39.10;;;30.38;;
80926;SDS011;70385;44.538;18.532;2023-07-16T01:27:22;37.85;;;29.42;;
80926;SDS011;70385;44.538;18.532;2023-07-16T01:29:58;40.47;;;31.15;;
80926;SDS011;70385;44.538;18.532;2023-07-16T01:32:35;36.63;;;29.83;;
80926;SDS011;70385;44.538;18.532;2023-07-16T01:35:02;37.88;;;31.60;;
80926;SDS011;70385;44.538;18.532;2023-07-16T01:37:33;42.78;;;31.08;;
80926;SDS011;70385;44.538;18.532;2023-07-16T01:39:59;38.58;;;31.17;;
80926;SDS011;70385;44.538;18.532;2023-07-16T01:42:25;37.17;;;32.03;;
80926;SDS011;70385;44.538;18.532;2023-07-16T01:44:52;39.97;;;32.13;;
80926;SDS011;70385;44.538;18.532;2023-07-16T01:47:26;37.55;;;32.05;;
80926;SDS011;70385;44.538;18.532;2023-07-16T01:49:58;36.33;;;30.60;;
80926;SDS011;70385;44.538;18.532;2023-07-16T01:52:24;35.65;;;31.85;;
80926;SDS011;70385;44.538;18.532;2023-07-16T01:54:51;37.90;;;32.58;;
80926;SDS011;70385;44.538;18.532;2023-07-16T01:57:20;40.03;;;34.30;;
80926;SDS011;70385;44.538;18.532;2023-07-16T01:59:46;40.17;;;33.92;;
80926;SDS011;70385;44.538;18.532;2023-07-16T02:02:13;44.47;;;35.28;;
80926;SDS011;70385;44.538;18.532;2023-07-16T02:04:39;41.00;;;35.03;;
80926;SDS011;70385;44.538;18.532;2023-07-16T02:07:05;41.95;;;35.08;;
80926;SDS011;70385;44.538;18.532;2023-07-16T02:09:33;42.50;;;33.72;;
80926;SDS011;70385;44.538;18.532;2023-07-16T02:12:00;40.85;;;33.85;;
80926;SDS011;70385;44.538;18.532;2023-07-16T02:14:28;41.13;;;33.90;;
80926;SDS011;70385;44.538;18.532;2023-07-16T02:16:54;41.90;;;35.17;;
80926;SDS011;70385;44.538;18.532;2023-07-16T02:19:20;37.90;;;32.20;;
80926;SDS011;70385;44.538;18.532;2023-07-16T02:21:46;34.78;;;30.02;;
80926;SDS011;70385;44.538;18.532;2023-07-16T02:24:13;39.28;;;34.17;;
80926;SDS011;70385;44.538;18.532;2023-07-16T02:26:39;41.75;;;32.30;;
80926;SDS011;70385;44.538;18.532;2023-07-16T02:29:05;38.03;;;32.50;;
80926;SDS011;70385;44.538;18.532;2023-07-16T02:31:35;36.33;;;31.73;;
80926;SDS011;70385;44.538;18.532;2023-07-16T02:34:03;42.70;;;32.70;;
80926;SDS011;70385;44.538;18.532;2023-07-16T02:36:32;42.97;;;34.15;;
80926;SDS011;70385;44.538;18.532;2023-07-16T02:38:59;41.95;;;35.95;;
80926;SDS011;70385;44.538;18.532;2023-07-16T02:41:24;39.08;;;34.67;;
80926;SDS011;70385;44.538;18.532;2023-07-16T02:43:58;42.78;;;34.45;;
80926;SDS011;70385;44.538;18.532;2023-07-16T02:46:26;44.65;;;34.15;;
80926;SDS011;70385;44.538;18.532;2023-07-16T02:48:54;40.42;;;34.25;;
80926;SDS011;70385;44.538;18.532;2023-07-16T02:51:21;46.05;;;35.05;;
80926;SDS011;70385;44.538;18.532;2023-07-16T02:53:47;42.53;;;33.60;;
80926;SDS011;70385;44.538;18.532;2023-07-16T02:56:13;39.72;;;32.53;;
80926;SDS011;70385;44.538;18.532;2023-07-16T02:58:39;41.15;;;32.47;;
80926;SDS011;70385;44.538;18.532;2023-07-16T03:01:05;39.83;;;31.52;;
80926;SDS011;70385;44.538;18.532;2023-07-16T03:03:31;38.05;;;32.42;;
80926;SDS011;70385;44.538;18.532;2023-07-16T03:05:57;38.08;;;31.77;;
80926;SDS011;70385;44.538;18.532;2023-07-16T03:08:26;44.08;;;32.50;;
80926;SDS011;70385;44.538;18.532;2023-07-16T03:10:55;40.45;;;32.03;;
80926;SDS011;70385;44.538;18.532;2023-07-16T03:13:23;37.50;;;31.23;;
80926;SDS011;70385;44.538;18.532;2023-07-16T03:15:50;39.88;;;33.60;;
80926;SDS011;70385;44.538;18.532;2023-07-16T03:18:17;51.72;;;38.05;;
80926;SDS011;70385;44.538;18.532;2023-07-16T03:20:44;45.17;;;36.38;;
80926;SDS011;70385;44.538;18.532;2023-07-16T03:23:12;46.05;;;34.97;;
80926;SDS011;70385;44.538;18.532;2023-07-16T03:25:38;40.78;;;33.72;;
80926;SDS011;70385;44.538;18.532;2023-07-16T03:28:06;41.38;;;35.50;;
80926;SDS011;70385;44.538;18.532;2023-07-16T03:30:33;45.58;;;36.88;;
80926;SDS011;70385;44.538;18.532;2023-07-16T03:32:59;41.67;;;33.65;;
80926;SDS011;70385;44.538;18.532;2023-07-16T03:35:25;46.45;;;34.95;;
80926;SDS011;70385;44.538;18.532;2023-07-16T03:37:52;42.53;;;34.03;;
80926;SDS011;70385;44.538;18.532;2023-07-16T03:40:23;44.15;;;36.50;;
80926;SDS011;70385;44.538;18.532;2023-07-16T03:42:51;46.63;;;35.70;;
80926;SDS011;70385;44.538;18.532;2023-07-16T03:45:17;45.50;;;37.15;;
80926;SDS011;70385;44.538;18.532;2023-07-16T03:47:44;46.00;;;33.17;;
80926;SDS011;70385;44.538;18.532;2023-07-16T03:50:14;39.90;;;32.47;;
80926;SDS011;70385;44.538;18.532;2023-07-16T03:52:40;37.60;;;31.35;;
80926;SDS011;70385;44.538;18.532;2023-07-16T03:55:06;40.60;;;31.23;;
80926;SDS011;70385;44.538;18.532;2023-07-16T03:57:32;37.30;;;30.50;;
80926;SDS011;70385;44.538;18.532;2023-07-16T03:59:59;36.47;;;29.45;;
80926;SDS011;70385;44.538;18.532;2023-07-16T04:02:26;36.45;;;29.48;;
80926;SDS011;70385;44.538;18.532;2023-07-16T04:04:51;33.92;;;26.98;;
80926;SDS011;70385;44.538;18.532;2023-07-16T04:07:17;30.83;;;26.27;;
80926;SDS011;70385;44.538;18.532;2023-07-16T04:09:44;30.67;;;24.75;;
80926;SDS011;70385;44.538;18.532;2023-07-16T04:12:10;32.13;;;26.17;;
80926;SDS011;70385;44.538;18.532;2023-07-16T04:14:35;29.83;;;25.38;;
80926;SDS011;70385;44.538;18.532;2023-07-16T04:17:02;29.38;;;25.90;;
80926;SDS011;70385;44.538;18.532;2023-07-16T04:19:29;32.70;;;25.85;;
80926;SDS011;70385;44.538;18.532;2023-07-16T04:21:56;33.88;;;26.75;;
80926;SDS011;70385;44.538;18.532;2023-07-16T04:24:22;32.65;;;26.67;;
80926;SDS011;70385;44.538;18.532;2023-07-16T04:26:49;35.55;;;30.15;;
80926;SDS011;70385;44.538;18.532;2023-07-16T04:29:14;37.30;;;29.25;;
80926;SDS011;70385;44.538;18.532;2023-07-16T04:31:42;34.30;;;28.08;;
80926;SDS011;70385;44.538;18.532;2023-07-16T04:34:07;36.20;;;28.70;;
80926;SDS011;70385;44.538;18.532;2023-07-16T04:36:33;32.40;;;27.45;;
80926;SDS011;70385;44.538;18.532;2023-07-16T04:38:59;35.90;;;27.88;;
80926;SDS011;70385;44.538;18.532;2023-07-16T04:41:24;35.55;;;27.20;;
80926;SDS011;70385;44.538;18.532;2023-07-16T04:43:51;31.08;;;27.05;;
80926;SDS011;70385;44.538;18.532;2023-07-16T04:46:17;37.92;;;28.30;;
80926;SDS011;70385;44.538;18.532;2023-07-16T04:48:43;35.42;;;28.98;;
80926;SDS011;70385;44.538;18.532;2023-07-16T04:51:09;30.88;;;27.35;;
80926;SDS011;70385;44.538;18.532;2023-07-16T04:53:37;36.00;;;26.88;;
80926;SDS011;70385;44.538;18.532;2023-07-16T04:56:03;30.98;;;26.20;;
80926;SDS011;70385;44.538;18.532;2023-07-16T04:58:30;31.33;;;25.50;;
80926;SDS011;70385;44.538;18.532;2023-07-16T05:00:55;32.28;;;26.08;;
80926;SDS011;70385;44.538;18.532;2023-07-16T05:03:23;29.27;;;24.85;;
80926;SDS011;70385;44.538;18.532;2023-07-16T05:05:49;28.67;;;23.95;;
80926;SDS011;70385;44.538;18.532;2023-07-16T05:08:15;38.03;;;24.60;;
80926;SDS011;70385;44.538;18.532;2023-07-16T05:10:41;28.35;;;25.08;;
80926;SDS011;70385;44.538;18.532;2023-07-16T05:13:15;28.65;;;23.17;;
80926;SDS011;70385;44.538;18.532;2023-07-16T05:15:45;30.95;;;23.92;;
80926;SDS011;70385;44.538;18.532;2023-07-16T05:18:11;27.58;;;23.13;;
80926;SDS011;70385;44.538;18.532;2023-07-16T05:20:37;27.58;;;22.17;;
80926;SDS011;70385;44.538;18.532;2023-07-16T05:23:11;25.70;;;23.00;;
80926;SDS011;70385;44.538;18.532;2023-07-16T05:25:45;27.75;;;22.67;;
80926;SDS011;70385;44.538;18.532;2023-07-16T05:28:13;23.23;;;20.67;;
80926;SDS011;70385;44.538;18.532;2023-07-16T05:30:39;30.67;;;22.75;;
80926;SDS011;70385;44.538;18.532;2023-07-16T05:33:06;29.50;;;22.42;;
80926;SDS011;70385;44.538;18.532;2023-07-16T05:35:35;30.05;;;23.00;;
80926;SDS011;70385;44.538;18.532;2023-07-16T05:38:03;30.40;;;22.65;;
80926;SDS011;70385;44.538;18.532;2023-07-16T05:40:30;30.48;;;22.70;;
80926;SDS011;70385;44.538;18.532;2023-07-16T05:42:59;29.33;;;23.15;;
80926;SDS011;70385;44.538;18.532;2023-07-16T05:45:26;25.75;;;20.88;;
80926;SDS011;70385;44.538;18.532;2023-07-16T05:47:52;23.55;;;20.55;;
80926;SDS011;70385;44.538;18.532;2023-07-16T05:50:17;22.83;;;20.52;;
80926;SDS011;70385;44.538;18.532;2023-07-16T05:52:45;25.83;;;21.35;;
80926;SDS011;70385;44.538;18.532;2023-07-16T05:55:15;24.20;;;20.80;;
80926;SDS011;70385;44.538;18.532;2023-07-16T05:57:48;23.23;;;19.65;;
80926;SDS011;70385;44.538;18.532;2023-07-16T06:00:16;23.40;;;21.08;;
80926;SDS011;70385;44.538;18.532;2023-07-16T06:02:43;23.92;;;21.33;;
80926;SDS011;70385;44.538;18.532;2023-07-16T06:05:11;23.05;;;20.38;;
80926;SDS011;70385;44.538;18.532;2023-07-16T06:07:39;22.30;;;18.70;;
80926;SDS011;70385;44.538;18.532;2023-07-16T06:10:05;25.98;;;20.92;;
80926;SDS011;70385;44.538;18.532;2023-07-16T06:12:31;23.30;;;19.42;;
80926;SDS011;70385;44.538;18.532;2023-07-16T06:15:00;23.42;;;18.65;;
80926;SDS011;70385;44.538;18.532;2023-07-16T06:17:27;27.10;;;20.42;;
80926;SDS011;70385;44.538;18.532;2023-07-16T06:19:52;26.20;;;19.52;;
80926;SDS011;70385;44.538;18.532;2023-07-16T06:22:18;24.60;;;20.00;;
80926;SDS011;70385;44.538;18.532;2023-07-16T06:24:45;26.67;;;19.83;;
80926;SDS011;70385;44.538;18.532;2023-07-16T06:27:11;25.10;;;20.05;;
80926;SDS011;70385;44.538;18.532;2023-07-16T06:29:38;23.58;;;20.77;;
80926;SDS011;70385;44.538;18.532;2023-07-16T06:32:04;25.38;;;19.50;;
80926;SDS011;70385;44.538;18.532;2023-07-16T06:34:30;25.63;;;20.85;;
80926;SDS011;70385;44.538;18.532;2023-07-16T06:36:57;21.88;;;19.63;;
80926;SDS011;70385;44.538;18.532;2023-07-16T06:39:22;22.75;;;20.35;;
80926;SDS011;70385;44.538;18.532;2023-07-16T06:41:48;24.02;;;19.35;;
80926;SDS011;70385;44.538;18.532;2023-07-16T06:44:14;25.17;;;20.42;;
80926;SDS011;70385;44.538;18.532;2023-07-16T06:46:39;26.55;;;20.35;;
80926;SDS011;70385;44.538;18.532;2023-07-16T06:49:05;22.38;;;19.95;;
80926;SDS011;70385;44.538;18.532;2023-07-16T06:51:33;28.23;;;22.08;;
80926;SDS011;70385;44.538;18.532;2023-07-16T06:53:59;29.08;;;20.02;;
80926;SDS011;70385;44.538;18.532;2023-07-16T06:56:25;23.08;;;19.92;;
80926;SDS011;70385;44.538;18.532;2023-07-16T06:58:51;24.58;;;20.90;;
80926;SDS011;70385;44.538;18.532;2023-07-16T07:01:17;25.83;;;21.00;;
80926;SDS011;70385;44.538;18.532;2023-07-16T07:03:44;23.10;;;20.73;;
80926;SDS011;70385;44.538;18.532;2023-07-16T07:06:13;27.90;;;20.40;;
80926;SDS011;70385;44.538;18.532;2023-07-16T07:08:39;28.30;;;21.40;;
80926;SDS011;70385;44.538;18.532;2023-07-16T07:11:06;25.75;;;20.58;;
80926;SDS011;70385;44.538;18.532;2023-07-16T07:13:32;28.10;;;20.95;;
80926;SDS011;70385;44.538;18.532;2023-07-16T07:15:58;22.85;;;20.38;;
80926;SDS011;70385;44.538;18.532;2023-07-16T07:18:24;26.83;;;22.38;;
80926;SDS011;70385;44.538;18.532;2023-07-16T07:20:50;30.20;;;21.48;;
80926;SDS011;70385;44.538;18.532;2023-07-16T07:23:17;28.33;;;22.25;;
80926;SDS011;70385;44.538;18.532;2023-07-16T07:25:43;34.70;;;22.55;;
80926;SDS011;70385;44.538;18.532;2023-07-16T07:28:17;28.15;;;23.23;;
80926;SDS011;70385;44.538;18.532;2023-07-16T07:30:44;29.80;;;23.38;;
80926;SDS011;70385;44.538;18.532;2023-07-16T07:33:10;25.73;;;21.85;;
80926;SDS011;70385;44.538;18.532;2023-07-16T07:35:38;31.88;;;22.70;;
80926;SDS011;70385;44.538;18.532;2023-07-16T07:38:04;26.63;;;23.80;;
80926;SDS011;70385;44.538;18.532;2023-07-16T07:40:31;29.65;;;23.33;;
80926;SDS011;70385;44.538;18.532;2023-07-16T07:42:59;30.15;;;24.63;;
80926;SDS011;70385;44.538;18.532;2023-07-16T07:45:25;30.73;;;24.25;;
80926;SDS011;70385;44.538;18.532;2023-07-16T07:47:51;32.83;;;25.35;;
80926;SDS011;70385;44.538;18.532;2023-07-16T07:50:19;37.50;;;25.77;;
80926;SDS011;70385;44.538;18.532;2023-07-16T07:52:46;35.25;;;26.80;;
80926;SDS011;70385;44.538;18.532;2023-07-16T07:55:12;32.85;;;27.05;;
80926;SDS011;70385;44.538;18.532;2023-07-16T07:57:38;40.22;;;26.52;;
80926;SDS011;70385;44.538;18.532;2023-07-16T08:00:04;31.95;;;26.92;;
80926;SDS011;70385;44.538;18.532;2023-07-16T08:02:38;32.58;;;26.95;;
80926;SDS011;70385;44.538;18.532;2023-07-16T08:05:04;32.92;;;28.00;;
80926;SDS011;70385;44.538;18.532;2023-07-16T08:07:30;42.58;;;29.15;;
80926;SDS011;70385;44.538;18.532;2023-07-16T08:09:56;36.15;;;28.88;;
80926;SDS011;70385;44.538;18.532;2023-07-16T08:12:23;37.67;;;30.50;;
80926;SDS011;70385;44.538;18.532;2023-07-16T08:14:48;46.83;;;30.50;;
80926;SDS011;70385;44.538;18.532;2023-07-16T08:17:14;40.00;;;32.45;;
80926;SDS011;70385;44.538;18.532;2023-07-16T08:19:40;48.08;;;33.47;;
80926;SDS011;70385;44.538;18.532;2023-07-16T08:22:06;40.22;;;31.55;;
80926;SDS011;70385;44.538;18.532;2023-07-16T08:24:32;38.50;;;31.10;;
80926;SDS011;70385;44.538;18.532;2023-07-16T08:26:58;48.17;;;31.92;;
80926;SDS011;70385;44.538;18.532;2023-07-16T08:29:25;42.33;;;31.30;;
80926;SDS011;70385;44.538;18.532;2023-07-16T08:31:51;47.00;;;33.00;;
80926;SDS011;70385;44.538;18.532;2023-07-16T08:34:16;55.90;;;32.97;;
80926;SDS011;70385;44.538;18.532;2023-07-16T08:36:44;58.88;;;33.08;;
80926;SDS011;70385;44.538;18.532;2023-07-16T08:39:09;46.20;;;31.92;;
80926;SDS011;70385;44.538;18.532;2023-07-16T08:41:35;58.90;;;33.88;;
80926;SDS011;70385;44.538;18.532;2023-07-16T08:44:01;61.95;;;32.95;;
80926;SDS011;70385;44.538;18.532;2023-07-16T08:46:27;55.85;;;30.80;;
80926;SDS011;70385;44.538;18.532;2023-07-16T08:48:56;47.85;;;32.60;;
80926;SDS011;70385;44.538;18.532;2023-07-16T08:51:22;46.85;;;32.47;;
80926;SDS011;70385;44.538;18.532;2023-07-16T08:53:51;45.17;;;30.77;;
80926;SDS011;70385;44.538;18.532;2023-07-16T08:56:16;53.53;;;33.63;;
80926;SDS011;70385;44.538;18.532;2023-07-16T08:58:43;43.15;;;32.47;;
80926;SDS011;70385;44.538;18.532;2023-07-16T09:01:12;53.00;;;32.55;;
80926;SDS011;70385;44.538;18.532;2023-07-16T09:03:38;52.67;;;31.83;;
80926;SDS011;70385;44.538;18.532;2023-07-16T09:06:04;45.08;;;28.95;;
80926;SDS011;70385;44.538;18.532;2023-07-16T09:08:30;35.70;;;24.83;;
80926;SDS011;70385;44.538;18.532;2023-07-16T09:10:58;32.30;;;23.98;;
80926;SDS011;70385;44.538;18.532;2023-07-16T09:13:24;35.50;;;24.77;;
80926;SDS011;70385;44.538;18.532;2023-07-16T09:15:54;28.15;;;23.20;;
80926;SDS011;70385;44.538;18.532;2023-07-16T09:18:23;34.53;;;23.92;;
80926;SDS011;70385;44.538;18.532;2023-07-16T09:20:54;26.15;;;22.85;;
80926;SDS011;70385;44.538;18.532;2023-07-16T09:23:25;25.95;;;23.15;;
80926;SDS011;70385;44.538;18.532;2023-07-16T09:25:53;27.95;;;24.33;;
80926;SDS011;70385;44.538;18.532;2023-07-16T09:28:20;29.63;;;24.10;;
80926;SDS011;70385;44.538;18.532;2023-07-16T09:30:46;32.78;;;24.67;;
80926;SDS011;70385;44.538;18.532;2023-07-16T09:33:17;27.63;;;21.90;;
80926;SDS011;70385;44.538;18.532;2023-07-16T09:35:47;23.85;;;21.17;;
80926;SDS011;70385;44.538;18.532;2023-07-16T09:38:17;25.42;;;22.08;;
80926;SDS011;70385;44.538;18.532;2023-07-16T09:40:44;18.58;;;16.58;;
80926;SDS011;70385;44.538;18.532;2023-07-16T09:43:12;16.30;;;14.10;;
80926;SDS011;70385;44.538;18.532;2023-07-16T09:45:38;17.40;;;14.40;;
80926;SDS011;70385;44.538;18.532;2023-07-16T09:48:04;16.60;;;14.75;;
80926;SDS011;70385;44.538;18.532;2023-07-16T09:50:33;21.98;;;15.50;;
80926;SDS011;70385;44.538;18.532;2023-07-16T09:53:00;21.98;;;15.18;;
80926;SDS011;70385;44.538;18.532;2023-07-16T09:55:28;19.42;;;16.85;;
80926;SDS011;70385;44.538;18.532;2023-07-16T09:58:00;25.80;;;17.88;;
80926;SDS011;70385;44.538;18.532;2023-07-16T10:00:28;27.00;;;17.08;;
80926;SDS011;70385;44.538;18.532;2023-07-16T10:02:56;21.30;;;17.30;;
80926;SDS011;70385;44.538;18.532;2023-07-16T10:07:55;29.08;;;19.75;;
80926;SDS011;70385;44.538;18.532;2023-07-16T10:10:42;10.80;;;9.05;;
80926;SDS011;70385;44.538;18.532;2023-07-16T10:13:22;10.93;;;9.85;;
80926;SDS011;70385;44.538;18.532;2023-07-16T10:18:29;15.77;;;11.85;;
80926;SDS011;70385;44.538;18.532;2023-07-16T10:21:03;12.88;;;9.88;;
80926;SDS011;70385;44.538;18.532;2023-07-16T10:23:41;13.73;;;8.75;;
80926;SDS011;70385;44.538;18.532;2023-07-16T10:26:10;10.75;;;7.32;;
80926;SDS011;70385;44.538;18.532;2023-07-16T10:28:40;14.77;;;10.82;;
80926;SDS011;70385;44.538;18.532;2023-07-16T10:31:06;13.30;;;11.10;;
80926;SDS011;70385;44.538;18.532;2023-07-16T10:33:57;15.77;;;10.95;;
80926;SDS011;70385;44.538;18.532;2023-07-16T10:36:39;18.95;;;11.75;;
80926;SDS011;70385;44.538;18.532;2023-07-16T10:39:05;13.50;;;8.45;;
80926;SDS011;70385;44.538;18.532;2023-07-16T10:41:31;7.72;;;6.93;;
80926;SDS011;70385;44.538;18.532;2023-07-16T10:44:01;6.65;;;5.20;;
80926;SDS011;70385;44.538;18.532;2023-07-16T10:46:30;7.95;;;5.40;;
80926;SDS011;70385;44.538;18.532;2023-07-16T10:48:57;7.72;;;5.53;;
80926;SDS011;70385;44.538;18.532;2023-07-16T10:51:26;10.10;;;6.22;;
80926;SDS011;70385;44.538;18.532;2023-07-16T10:53:55;10.82;;;6.50;;
80926;SDS011;70385;44.538;18.532;2023-07-16T10:56:22;12.15;;;6.45;;
80926;SDS011;70385;44.538;18.532;2023-07-16T10:58:48;9.90;;;6.80;;
80926;SDS011;70385;44.538;18.532;2023-07-16T11:01:14;13.93;;;8.23;;
80926;SDS011;70385;44.538;18.532;2023-07-16T11:03:41;13.02;;;7.97;;
80926;SDS011;70385;44.538;18.532;2023-07-16T11:06:08;9.57;;;7.85;;
80926;SDS011;70385;44.538;18.532;2023-07-16T11:08:35;13.07;;;7.72;;
80926;SDS011;70385;44.538;18.532;2023-07-16T11:11:00;6.70;;;5.38;;
80926;SDS011;70385;44.538;18.532;2023-07-16T11:13:29;9.10;;;5.80;;
80926;SDS011;70385;44.538;18.532;2023-07-16T11:15:57;8.73;;;5.30;;
80926;SDS011;70385;44.538;18.532;2023-07-16T11:18:32;7.10;;;5.90;;
80926;SDS011;70385;44.538;18.532;2023-07-16T11:20:58;11.13;;;6.20;;
80926;SDS011;70385;44.538;18.532;2023-07-16T11:23:24;7.85;;;5.80;;
80926;SDS011;70385;44.538;18.532;2023-07-16T11:25:52;9.27;;;5.63;;
80926;SDS011;70385;44.538;18.532;2023-07-16T11:28:18;6.82;;;5.43;;
80926;SDS011;70385;44.538;18.532;2023-07-16T11:30:44;8.75;;;5.57;;
80926;SDS011;70385;44.538;18.532;2023-07-16T11:33:10;6.75;;;5.57;;
80926;SDS011;70385;44.538;18.532;2023-07-16T11:35:39;7.13;;;6.10;;
80926;SDS011;70385;44.538;18.532;2023-07-16T11:38:05;9.98;;;6.10;;
80926;SDS011;70385;44.538;18.532;2023-07-16T11:40:33;10.05;;;6.30;;
80926;SDS011;70385;44.538;18.532;2023-07-16T11:43:11;8.18;;;5.00;;
80926;SDS011;70385;44.538;18.532;2023-07-16T11:45:46;8.23;;;4.80;;
80926;SDS011;70385;44.538;18.532;2023-07-16T11:48:14;8.52;;;5.45;;
80926;SDS011;70385;44.538;18.532;2023-07-16T11:50:40;7.20;;;5.07;;
80926;SDS011;70385;44.538;18.532;2023-07-16T11:53:06;8.95;;;5.32;;
80926;SDS011;70385;44.538;18.532;2023-07-16T11:55:31;5.63;;;4.38;;
80926;SDS011;70385;44.538;18.532;2023-07-16T11:57:57;5.60;;;4.80;;
80926;SDS011;70385;44.538;18.532;2023-07-16T12:00:25;7.45;;;5.32;;
80926;SDS011;70385;44.538;18.532;2023-07-16T12:02:51;8.35;;;4.18;;
80926;SDS011;70385;44.538;18.532;2023-07-16T12:05:17;6.40;;;3.90;;
80926;SDS011;70385;44.538;18.532;2023-07-16T12:07:44;7.40;;;4.85;;
80926;SDS011;70385;44.538;18.532;2023-07-16T12:10:11;4.88;;;3.65;;
80926;SDS011;70385;44.538;18.532;2023-07-16T12:12:37;6.57;;;4.57;;
80926;SDS011;70385;44.538;18.532;2023-07-16T12:15:04;9.80;;;4.10;;
80926;SDS011;70385;44.538;18.532;2023-07-16T12:17:32;9.70;;;4.70;;
80926;SDS011;70385;44.538;18.532;2023-07-16T12:19:58;10.90;;;6.10;;
80926;SDS011;70385;44.538;18.532;2023-07-16T12:22:24;10.38;;;6.03;;
80926;SDS011;70385;44.538;18.532;2023-07-16T12:24:50;9.60;;;4.50;;
80926;SDS011;70385;44.538;18.532;2023-07-16T12:27:17;8.15;;;4.68;;
80926;SDS011;70385;44.538;18.532;2023-07-16T12:29:43;6.97;;;4.47;;
80926;SDS011;70385;44.538;18.532;2023-07-16T12:32:09;5.50;;;4.60;;
80926;SDS011;70385;44.538;18.532;2023-07-16T12:34:38;5.63;;;4.35;;
80926;SDS011;70385;44.538;18.532;2023-07-16T12:37:04;10.02;;;5.75;;
80926;SDS011;70385;44.538;18.532;2023-07-16T12:39:30;7.95;;;4.70;;
80926;SDS011;70385;44.538;18.532;2023-07-16T12:41:56;8.20;;;4.25;;
80926;SDS011;70385;44.538;18.532;2023-07-16T12:44:22;5.60;;;4.22;;
80926;SDS011;70385;44.538;18.532;2023-07-16T12:46:49;7.70;;;4.18;;
80926;SDS011;70385;44.538;18.532;2023-07-16T12:49:16;8.23;;;4.00;;
80926;SDS011;70385;44.538;18.532;2023-07-16T12:51:42;6.57;;;4.68;;
80926;SDS011;70385;44.538;18.532;2023-07-16T12:54:08;8.75;;;4.10;;
80926;SDS011;70385;44.538;18.532;2023-07-16T12:56:35;6.43;;;4.13;;
80926;SDS011;70385;44.538;18.532;2023-07-16T12:59:00;5.88;;;4.20;;
80926;SDS011;70385;44.538;18.532;2023-07-16T13:01:28;7.70;;;3.92;;
80926;SDS011;70385;44.538;18.532;2023-07-16T13:03:56;7.32;;;4.38;;
80926;SDS011;70385;44.538;18.532;2023-07-16T13:06:22;4.72;;;3.95;;
80926;SDS011;70385;44.538;18.532;2023-07-16T13:08:47;8.95;;;4.03;;
80926;SDS011;70385;44.538;18.532;2023-07-16T13:11:13;4.57;;;3.65;;
80926;SDS011;70385;44.538;18.532;2023-07-16T13:13:40;7.43;;;3.67;;
80926;SDS011;70385;44.538;18.532;2023-07-16T13:16:21;7.60;;;3.63;;
80926;SDS011;70385;44.538;18.532;2023-07-16T13:18:47;8.88;;;4.03;;
80926;SDS011;70385;44.538;18.532;2023-07-16T13:21:13;7.07;;;4.30;;
80926;SDS011;70385;44.538;18.532;2023-07-16T13:23:39;5.53;;;3.90;;
80926;SDS011;70385;44.538;18.532;2023-07-16T13:26:05;7.80;;;3.90;;
80926;SDS011;70385;44.538;18.532;2023-07-16T13:28:32;5.80;;;3.90;;
80926;SDS011;70385;44.538;18.532;2023-07-16T13:30:59;5.95;;;3.60;;
80926;SDS011;70385;44.538;18.532;2023-07-16T13:33:26;5.38;;;3.53;;
80926;SDS011;70385;44.538;18.532;2023-07-16T13:35:53;6.60;;;3.50;;
80926;SDS011;70385;44.538;18.532;2023-07-16T13:38:21;13.48;;;3.70;;
80926;SDS011;70385;44.538;18.532;2023-07-16T13:40:47;5.45;;;3.13;;
80926;SDS011;70385;44.538;18.532;2023-07-16T13:43:13;4.15;;;3.20;;
80926;SDS011;70385;44.538;18.532;2023-07-16T13:45:39;6.10;;;3.63;;
80926;SDS011;70385;44.538;18.532;2023-07-16T13:48:05;5.47;;;3.50;;
80926;SDS011;70385;44.538;18.532;2023-07-16T13:50:30;5.30;;;3.22;;
80926;SDS011;70385;44.538;18.532;2023-07-16T13:52:58;4.85;;;3.40;;
80926;SDS011;70385;44.538;18.532;2023-07-16T13:55:27;6.13;;;3.10;;
80926;SDS011;70385;44.538;18.532;2023-07-16T13:57:54;5.55;;;3.15;;
80926;SDS011;70385;44.538;18.532;2023-07-16T14:00:21;7.00;;;3.13;;
80926;SDS011;70385;44.538;18.532;2023-07-16T14:02:49;5.32;;;3.40;;
80926;SDS011;70385;44.538;18.532;2023-07-16T14:05:20;4.93;;;3.33;;
80926;SDS011;70385;44.538;18.532;2023-07-16T14:07:47;6.93;;;3.47;;
80926;SDS011;70385;44.538;18.532;2023-07-16T14:10:17;7.38;;;3.25;;
80926;SDS011;70385;44.538;18.532;2023-07-16T14:12:43;6.05;;;3.28;;
80926;SDS011;70385;44.538;18.532;2023-07-16T14:15:10;7.80;;;3.50;;
80926;SDS011;70385;44.538;18.532;2023-07-16T14:17:37;5.95;;;3.22;;
80926;SDS011;70385;44.538;18.532;2023-07-16T14:20:06;7.75;;;3.20;;
80926;SDS011;70385;44.538;18.532;2023-07-16T14:22:33;7.25;;;3.13;;
80926;SDS011;70385;44.538;18.532;2023-07-16T14:24:59;4.10;;;2.95;;